createdAt,value
2022-11-12T00:08:10.895Z,24.23
2022-11-12T00:13:39.704Z,22.37
2022-11-12T00:25:02.012Z,21.00
2022-11-12T00:30:28.557Z,24.63
2022-11-12T00:35:57.128Z,22.67
2022-11-12T00:41:51.901Z,22.13
2022-11-12T00:47:24.126Z,22.60
2022-11-12T00:52:57.955Z,22.67
2022-11-12T00:58:26.723Z,21.77
2022-11-12T01:03:56.135Z,21.87
2022-11-12T01:09:22.482Z,20.90
2022-11-12T01:14:57.945Z,26.03
2022-11-12T01:20:25.854Z,22.80
2022-11-12T01:25:50.632Z,22.20
2022-11-12T01:31:31.973Z,23.07
2022-11-12T01:36:58.052Z,23.70
2022-11-12T01:48:46.069Z,20.27
2022-11-12T01:54:15.363Z,20.37
2022-11-12T01:59:46.050Z,21.90
2022-11-12T02:05:30.147Z,21.00
2022-11-12T02:16:53.260Z,20.83
2022-11-12T02:28:41.466Z,21.97
2022-11-12T02:34:09.333Z,24.03
2022-11-12T02:57:46.730Z,18.80
2022-11-12T03:03:16.284Z,16.37
2022-11-12T03:08:45.438Z,16.03
2022-11-12T03:14:19.222Z,15.33
2022-11-12T03:19:45.465Z,15.33
2022-11-12T03:25:26.137Z,13.53
2022-11-12T03:31:15.721Z,15.87
2022-11-12T03:36:47.778Z,13.57
2022-11-12T03:42:18.348Z,15.03
2022-11-12T03:47:50.697Z,15.37
2022-11-12T03:53:16.724Z,13.70
2022-11-12T03:58:44.090Z,16.03
2022-11-12T04:04:16.916Z,13.83
2022-11-12T04:09:42.266Z,16.60
2022-11-12T04:15:12.785Z,14.43
2022-11-12T04:20:55.830Z,12.80
2022-11-12T04:26:33.207Z,13.17
2022-11-12T04:32:05.226Z,14.70
2022-11-12T04:38:07.161Z,15.10
2022-11-12T04:43:50.980Z,17.27
2022-11-12T04:49:18.183Z,14.47
2022-11-12T04:54:47.819Z,13.97
2022-11-12T05:00:33.158Z,15.03
2022-11-12T05:06:19.576Z,15.30
2022-11-12T05:11:55.042Z,14.43
2022-11-12T05:23:18.989Z,16.17
2022-11-12T05:28:47.860Z,14.67
2022-11-12T05:34:25.379Z,14.90
2022-11-12T05:39:52.857Z,15.97
2022-11-12T05:45:19.016Z,13.77
2022-11-12T05:56:42.105Z,18.37
2022-11-12T06:02:08.767Z,20.13
2022-11-12T06:07:39.136Z,19.30
2022-11-12T06:13:03.551Z,14.13
2022-11-12T06:18:29.168Z,16.70
2022-11-12T06:23:59.947Z,15.33
2022-11-12T06:29:34.928Z,16.80
2022-11-12T06:35:09.494Z,11.57
2022-11-12T06:40:52.594Z,13.53
2022-11-12T06:46:20.118Z,15.17
2022-11-12T06:51:45.564Z,12.60
2022-11-12T06:57:14.430Z,13.77
2022-11-12T07:02:41.051Z,12.63
2022-11-12T07:08:06.849Z,12.93
2022-11-12T07:13:39.848Z,12.73
2022-11-12T07:19:16.654Z,11.40
2022-11-12T07:24:50.099Z,11.67
2022-11-12T07:36:22.536Z,12.00
2022-11-12T07:41:54.407Z,12.33
2022-11-12T07:47:27.877Z,13.97
2022-11-12T07:52:54.984Z,9.87
2022-11-12T07:58:18.730Z,11.23
2022-11-12T08:03:45.377Z,8.93
2022-11-12T08:09:11.069Z,11.60
2022-11-12T08:14:34.972Z,11.93
2022-11-12T08:20:01.277Z,13.70
2022-11-12T08:25:24.705Z,12.90
2022-11-12T08:30:48.199Z,17.77
2022-11-12T08:36:17.898Z,32.13
2022-11-12T08:41:41.630Z,70.07
2022-11-12T08:47:07.176Z,14.20
2022-11-12T08:52:33.550Z,15.03
2022-11-12T08:58:02.045Z,12.87
2022-11-12T09:03:34.409Z,13.20
2022-11-12T09:09:00.966Z,11.10
2022-11-12T09:14:24.701Z,18.67
2022-11-12T09:19:50.807Z,20.67
2022-11-12T09:25:17.912Z,11.70
2022-11-12T09:30:54.698Z,12.77
2022-11-12T09:36:25.828Z,11.80
2022-11-12T10:13:35.263Z,11.67
2022-11-12T10:19:17.572Z,17.27
2022-11-12T10:30:30.763Z,18.80
2022-11-12T10:35:56.595Z,12.77
2022-11-12T10:47:21.977Z,6.63
2022-11-12T10:53:00.819Z,6.63
2022-11-12T10:58:25.361Z,5.20
2022-11-12T11:03:57.550Z,6.40
2022-11-12T11:09:22.800Z,3.13
2022-11-12T11:14:46.708Z,2.40
2022-11-12T11:20:22.524Z,2.40
2022-11-12T11:25:51.249Z,3.67
2022-11-12T11:31:25.299Z,3.40
2022-11-12T11:37:02.167Z,4.53
2022-11-12T11:42:48.154Z,3.13
2022-11-12T11:48:20.093Z,3.87
2022-11-12T11:53:53.182Z,3.10
2022-11-12T11:59:28.136Z,3.27
2022-11-12T12:04:54.767Z,3.43
2022-11-12T12:10:46.585Z,4.67
2022-11-12T12:16:28.133Z,2.93
2022-11-12T12:21:54.230Z,4.33
2022-11-12T12:27:25.685Z,5.80
2022-11-12T12:32:56.250Z,3.37
2022-11-12T12:38:26.466Z,4.73
2022-11-12T12:43:58.243Z,3.67
2022-11-12T12:49:28.589Z,4.07
2022-11-12T12:55:00.347Z,4.07
2022-11-12T13:00:37.571Z,3.37
2022-11-12T13:06:10.044Z,3.37
2022-11-12T13:12:02.605Z,3.83
2022-11-12T13:17:55.747Z,4.63
2022-11-12T13:23:59.638Z,3.03
2022-11-12T13:29:42.059Z,4.67
2022-11-12T13:35:28.562Z,3.87
2022-11-12T13:40:55.830Z,3.50
2022-11-12T13:46:29.195Z,3.37
2022-11-12T13:51:57.554Z,3.10
2022-11-12T13:57:33.060Z,6.80
2022-11-12T14:03:00.187Z,6.90
2022-11-12T14:08:46.274Z,5.77
2022-11-12T14:14:22.232Z,5.13
2022-11-12T14:20:12.006Z,5.90
2022-11-12T14:25:48.234Z,5.50
2022-11-12T14:31:16.964Z,9.13
2022-11-12T14:36:41.201Z,9.67
2022-11-12T14:42:08.041Z,9.93
2022-11-12T14:47:31.712Z,4.43
2022-11-12T14:53:02.048Z,7.53
2022-11-12T14:58:28.853Z,8.47
2022-11-12T15:03:52.416Z,7.60
2022-11-12T15:09:22.012Z,8.67
2022-11-12T15:14:51.310Z,15.23
2022-11-12T15:20:20.739Z,8.30
2022-11-12T15:25:45.442Z,6.63
2022-11-12T15:31:21.097Z,4.40
2022-11-12T15:36:47.276Z,8.30
2022-11-12T15:42:19.416Z,6.43
2022-11-12T15:47:48.107Z,8.13
2022-11-12T15:53:12.508Z,11.20
2022-11-12T15:58:41.978Z,11.60
2022-11-12T16:04:09.638Z,11.70
2022-11-12T16:09:35.339Z,14.47
2022-11-12T16:14:59.759Z,10.33
2022-11-12T16:20:29.626Z,12.50
2022-11-12T16:25:53.690Z,14.77
2022-11-12T16:31:18.386Z,18.60
2022-11-12T16:36:44.654Z,34.93
2022-11-12T16:42:08.507Z,31.20
2022-11-12T16:47:32.120Z,23.20
2022-11-12T16:52:58.387Z,21.20
2022-11-12T16:58:22.083Z,24.77
2022-11-12T17:03:45.831Z,27.37
2022-11-12T17:09:15.199Z,27.33
2022-11-12T17:14:40.664Z,33.07
2022-11-12T17:20:04.216Z,28.40
2022-11-12T17:25:33.439Z,27.43
2022-11-12T17:31:05.484Z,33.23
2022-11-12T17:36:30.501Z,38.63
2022-11-12T17:41:59.834Z,38.10
2022-11-12T17:47:23.552Z,35.23
2022-11-12T17:52:47.008Z,36.73
2022-11-12T17:58:13.948Z,36.93
2022-11-12T18:03:39.640Z,27.67
2022-11-12T18:09:08.876Z,18.27
2022-11-12T18:14:37.033Z,21.60
2022-11-12T18:20:00.422Z,22.87
2022-11-12T18:25:26.022Z,26.83
2022-11-12T18:30:54.187Z,25.53
2022-11-12T18:36:19.817Z,30.10
2022-11-12T18:41:43.714Z,26.57
2022-11-12T18:47:17.623Z,29.47
2022-11-12T18:52:41.839Z,31.90
2022-11-12T18:58:05.702Z,23.93
2022-11-12T19:03:35.005Z,22.13
2022-11-12T19:09:06.030Z,24.80
2022-11-12T19:14:29.652Z,18.97
2022-11-12T19:19:58.590Z,23.10
2022-11-12T19:25:23.319Z,21.40
2022-11-12T19:30:48.994Z,17.43
2022-11-12T19:36:17.692Z,15.60
2022-11-12T19:41:41.489Z,15.53
2022-11-12T19:47:05.501Z,16.20
2022-11-12T19:52:31.557Z,14.87
2022-11-12T19:57:55.284Z,21.77
2022-11-12T20:03:24.952Z,20.97
2022-11-12T20:08:59.007Z,26.37
2022-11-12T20:14:22.673Z,22.80
2022-11-12T20:19:48.923Z,22.20
2022-11-12T20:25:15.540Z,24.63
2022-11-12T20:30:41.724Z,23.83
2022-11-12T20:36:10.347Z,19.10
2022-11-12T20:41:37.914Z,23.37
2022-11-12T20:47:01.645Z,20.63
2022-11-12T20:52:25.203Z,22.40
2022-11-12T20:57:51.489Z,24.93
2022-11-12T21:03:15.553Z,29.37
2022-11-12T21:08:41.394Z,29.67
2022-11-12T21:14:07.761Z,38.03
2022-11-12T21:19:31.698Z,27.17
2022-11-12T21:24:55.335Z,32.30
2022-11-12T21:30:22.717Z,22.60
2022-11-12T21:35:53.930Z,25.70
2022-11-12T21:41:19.082Z,22.30
2022-11-12T21:46:46.700Z,24.47
2022-11-12T21:52:12.894Z,28.13
2022-11-12T21:57:36.533Z,25.07
2022-11-12T22:03:03.200Z,22.37
2022-11-12T22:08:28.024Z,26.83
2022-11-12T22:13:51.830Z,22.67
2022-11-12T22:19:21.793Z,24.37
2022-11-12T22:24:45.179Z,24.83
2022-11-12T22:30:15.594Z,23.03
2022-11-12T22:35:42.166Z,20.97
2022-11-12T22:41:07.622Z,23.97
2022-11-12T22:46:33.601Z,23.63
2022-11-12T22:51:59.629Z,21.47
2022-11-12T22:57:23.519Z,30.00
2022-11-12T23:02:47.836Z,25.67
2022-11-12T23:08:17.550Z,28.40
2022-11-12T23:13:44.217Z,23.83
2022-11-12T23:19:08.113Z,30.83
2022-11-12T23:24:34.770Z,25.40
2022-11-12T23:30:00.088Z,27.43
2022-11-12T23:35:27.146Z,27.17
2022-11-12T23:41:01.576Z,28.10
2022-11-12T23:46:32.218Z,27.37
2022-11-12T23:51:58.188Z,26.00
2022-11-12T23:57:28.684Z,29.90
